sensor_id;sensor_type;location;lat;lon;timestamp;P1;durP1;ratioP1;P2;durP2;ratioP2
35795;SDS011;21916;52.428;13.302;2022-08-19T00:00:46;18.45;;;16.67;;
35795;SDS011;21916;52.428;13.302;2022-08-19T00:03:12;18.85;;;17.10;;
35795;SDS011;21916;52.428;13.302;2022-08-19T00:05:38;20.00;;;18.10;;
35795;SDS011;21916;52.428;13.302;2022-08-19T00:08:06;19.55;;;17.58;;
35795;SDS011;21916;52.428;13.302;2022-08-19T00:10:32;20.13;;;18.02;;
35795;SDS011;21916;52.428;13.302;2022-08-19T00:12:59;19.95;;;17.92;;
35795;SDS011;21916;52.428;13.302;2022-08-19T00:15:25;19.13;;;17.13;;
35795;SDS011;21916;52.428;13.302;2022-08-19T00:17:51;18.20;;;16.50;;
35795;SDS011;21916;52.428;13.302;2022-08-19T00:20:17;19.13;;;17.17;;
35795;SDS011;21916;52.428;13.302;2022-08-19T00:22:46;20.70;;;18.70;;
35795;SDS011;21916;52.428;13.302;2022-08-19T00:25:13;22.20;;;19.90;;
35795;SDS011;21916;52.428;13.302;2022-08-19T00:27:39;20.58;;;18.40;;
35795;SDS011;21916;52.428;13.302;2022-08-19T00:30:05;19.55;;;17.65;;
35795;SDS011;21916;52.428;13.302;2022-08-19T00:32:33;19.42;;;17.63;;
35795;SDS011;21916;52.428;13.302;2022-08-19T00:34:59;19.92;;;17.80;;
35795;SDS011;21916;52.428;13.302;2022-08-19T00:37:26;21.38;;;17.55;;
35795;SDS011;21916;52.428;13.302;2022-08-19T00:39:52;20.38;;;18.23;;
35795;SDS011;21916;52.428;13.302;2022-08-19T00:42:19;18.48;;;16.67;;
35795;SDS011;21916;52.428;13.302;2022-08-19T00:44:46;19.95;;;17.85;;
35795;SDS011;21916;52.428;13.302;2022-08-19T00:47:12;20.30;;;17.90;;
35795;SDS011;21916;52.428;13.302;2022-08-19T00:49:43;18.95;;;17.08;;
35795;SDS011;21916;52.428;13.302;2022-08-19T00:52:20;18.50;;;16.58;;
35795;SDS011;21916;52.428;13.302;2022-08-19T00:54:57;19.55;;;17.55;;
35795;SDS011;21916;52.428;13.302;2022-08-19T00:57:32;19.83;;;17.85;;
35795;SDS011;21916;52.428;13.302;2022-08-19T01:00:03;19.58;;;17.58;;
35795;SDS011;21916;52.428;13.302;2022-08-19T01:02:36;19.35;;;17.35;;
35795;SDS011;21916;52.428;13.302;2022-08-19T01:05:05;20.52;;;18.30;;
35795;SDS011;21916;52.428;13.302;2022-08-19T01:07:34;19.35;;;17.48;;
35795;SDS011;21916;52.428;13.302;2022-08-19T01:10:02;20.17;;;18.13;;
35795;SDS011;21916;52.428;13.302;2022-08-19T01:12:30;20.90;;;18.80;;
35795;SDS011;21916;52.428;13.302;2022-08-19T01:14:56;19.75;;;17.77;;
35795;SDS011;21916;52.428;13.302;2022-08-19T01:17:24;20.33;;;18.42;;
35795;SDS011;21916;52.428;13.302;2022-08-19T01:19:50;19.58;;;17.55;;
35795;SDS011;21916;52.428;13.302;2022-08-19T01:24:48;19.13;;;16.55;;
35795;SDS011;21916;52.428;13.302;2022-08-19T01:27:15;19.13;;;17.17;;
35795;SDS011;21916;52.428;13.302;2022-08-19T01:29:42;16.88;;;15.18;;
35795;SDS011;21916;52.428;13.302;2022-08-19T01:32:11;19.23;;;17.40;;
35795;SDS011;21916;52.428;13.302;2022-08-19T01:34:40;18.80;;;17.00;;
35795;SDS011;21916;52.428;13.302;2022-08-19T01:37:06;18.23;;;16.45;;
35795;SDS011;21916;52.428;13.302;2022-08-19T01:39:36;19.55;;;16.85;;
35795;SDS011;21916;52.428;13.302;2022-08-19T01:42:07;18.27;;;15.50;;
35795;SDS011;21916;52.428;13.302;2022-08-19T01:44:36;20.60;;;18.42;;
35795;SDS011;21916;52.428;13.302;2022-08-19T01:47:06;21.08;;;17.38;;
35795;SDS011;21916;52.428;13.302;2022-08-19T01:49:33;21.35;;;17.05;;
35795;SDS011;21916;52.428;13.302;2022-08-19T01:51:59;23.55;;;19.65;;
35795;SDS011;21916;52.428;13.302;2022-08-19T01:54:26;20.70;;;18.60;;
35795;SDS011;21916;52.428;13.302;2022-08-19T01:56:52;22.45;;;20.15;;
35795;SDS011;21916;52.428;13.302;2022-08-19T01:59:29;23.98;;;20.48;;
35795;SDS011;21916;52.428;13.302;2022-08-19T02:01:56;29.42;;;20.33;;
35795;SDS011;21916;52.428;13.302;2022-08-19T02:04:22;25.25;;;20.83;;
35795;SDS011;21916;52.428;13.302;2022-08-19T02:06:50;24.55;;;21.15;;
35795;SDS011;21916;52.428;13.302;2022-08-19T02:09:16;22.60;;;19.88;;
35795;SDS011;21916;52.428;13.302;2022-08-19T02:11:42;27.55;;;23.55;;
35795;SDS011;21916;52.428;13.302;2022-08-19T02:14:08;25.00;;;22.35;;
35795;SDS011;21916;52.428;13.302;2022-08-19T02:16:35;23.20;;;20.70;;
35795;SDS011;21916;52.428;13.302;2022-08-19T02:19:02;25.13;;;21.42;;
35795;SDS011;21916;52.428;13.302;2022-08-19T02:21:28;27.67;;;22.17;;
35795;SDS011;21916;52.428;13.302;2022-08-19T02:23:55;23.50;;;20.67;;
35795;SDS011;21916;52.428;13.302;2022-08-19T02:26:22;23.90;;;21.33;;
35795;SDS011;21916;52.428;13.302;2022-08-19T02:28:48;23.23;;;20.75;;
35795;SDS011;21916;52.428;13.302;2022-08-19T02:31:15;23.77;;;21.33;;
35795;SDS011;21916;52.428;13.302;2022-08-19T02:33:44;23.23;;;20.70;;
35795;SDS011;21916;52.428;13.302;2022-08-19T02:36:12;22.70;;;20.30;;
35795;SDS011;21916;52.428;13.302;2022-08-19T02:38:38;22.52;;;20.02;;
35795;SDS011;21916;52.428;13.302;2022-08-19T02:41:11;23.45;;;21.20;;
35795;SDS011;21916;52.428;13.302;2022-08-19T02:43:40;22.65;;;20.38;;
35795;SDS011;21916;52.428;13.302;2022-08-19T02:46:13;23.50;;;21.13;;
35795;SDS011;21916;52.428;13.302;2022-08-19T02:48:41;22.92;;;20.58;;
35795;SDS011;21916;52.428;13.302;2022-08-19T02:51:07;22.33;;;20.13;;
35795;SDS011;21916;52.428;13.302;2022-08-19T02:53:33;23.25;;;20.88;;
35795;SDS011;21916;52.428;13.302;2022-08-19T02:55:58;21.38;;;19.25;;
35795;SDS011;21916;52.428;13.302;2022-08-19T02:58:24;21.30;;;19.20;;
35795;SDS011;21916;52.428;13.302;2022-08-19T03:00:53;21.73;;;19.58;;
35795;SDS011;21916;52.428;13.302;2022-08-19T03:03:20;23.20;;;20.85;;
35795;SDS011;21916;52.428;13.302;2022-08-19T03:05:46;22.77;;;20.67;;
35795;SDS011;21916;52.428;13.302;2022-08-19T03:08:14;22.65;;;20.45;;
35795;SDS011;21916;52.428;13.302;2022-08-19T03:10:41;22.42;;;20.08;;
35795;SDS011;21916;52.428;13.302;2022-08-19T03:13:10;24.02;;;21.42;;
35795;SDS011;21916;52.428;13.302;2022-08-19T03:15:41;24.13;;;21.70;;
35795;SDS011;21916;52.428;13.302;2022-08-19T03:18:09;24.95;;;22.17;;
35795;SDS011;21916;52.428;13.302;2022-08-19T03:20:45;25.88;;;23.17;;
35795;SDS011;21916;52.428;13.302;2022-08-19T03:23:13;26.02;;;23.33;;
35795;SDS011;21916;52.428;13.302;2022-08-19T03:25:41;25.73;;;23.13;;
35795;SDS011;21916;52.428;13.302;2022-08-19T03:28:12;23.98;;;21.52;;
35795;SDS011;21916;52.428;13.302;2022-08-19T03:30:40;25.65;;;23.02;;
35795;SDS011;21916;52.428;13.302;2022-08-19T03:33:08;26.90;;;24.30;;
35795;SDS011;21916;52.428;13.302;2022-08-19T03:35:35;27.88;;;25.10;;
35795;SDS011;21916;52.428;13.302;2022-08-19T03:38:05;28.30;;;24.85;;
35795;SDS011;21916;52.428;13.302;2022-08-19T03:40:32;28.77;;;26.00;;
35795;SDS011;21916;52.428;13.302;2022-08-19T03:43:01;30.40;;;27.25;;
35795;SDS011;21916;52.428;13.302;2022-08-19T03:45:27;30.70;;;27.60;;
35795;SDS011;21916;52.428;13.302;2022-08-19T03:47:54;30.38;;;27.30;;
35795;SDS011;21916;52.428;13.302;2022-08-19T03:50:20;31.60;;;28.30;;
35795;SDS011;21916;52.428;13.302;2022-08-19T03:52:50;32.53;;;29.13;;
35795;SDS011;21916;52.428;13.302;2022-08-19T03:55:17;30.58;;;27.52;;
35795;SDS011;21916;52.428;13.302;2022-08-19T03:57:43;29.92;;;26.80;;
35795;SDS011;21916;52.428;13.302;2022-08-19T04:00:11;29.60;;;26.45;;
35795;SDS011;21916;52.428;13.302;2022-08-19T04:02:40;28.33;;;25.63;;
35795;SDS011;21916;52.428;13.302;2022-08-19T04:05:07;27.92;;;25.08;;
35795;SDS011;21916;52.428;13.302;2022-08-19T04:07:33;29.77;;;26.40;;
35795;SDS011;21916;52.428;13.302;2022-08-19T04:09:59;28.83;;;25.85;;
35795;SDS011;21916;52.428;13.302;2022-08-19T04:12:25;28.10;;;25.15;;
35795;SDS011;21916;52.428;13.302;2022-08-19T04:14:51;30.23;;;27.10;;
35795;SDS011;21916;52.428;13.302;2022-08-19T04:17:17;30.60;;;27.58;;
35795;SDS011;21916;52.428;13.302;2022-08-19T04:19:43;31.92;;;28.15;;
35795;SDS011;21916;52.428;13.302;2022-08-19T04:22:09;29.20;;;26.10;;
35795;SDS011;21916;52.428;13.302;2022-08-19T04:24:36;28.48;;;25.42;;
35795;SDS011;21916;52.428;13.302;2022-08-19T04:27:02;29.83;;;25.60;;
35795;SDS011;21916;52.428;13.302;2022-08-19T04:29:30;27.48;;;24.67;;
35795;SDS011;21916;52.428;13.302;2022-08-19T04:31:57;25.70;;;23.10;;
35795;SDS011;21916;52.428;13.302;2022-08-19T04:34:24;26.05;;;23.45;;
35795;SDS011;21916;52.428;13.302;2022-08-19T04:36:54;25.30;;;22.73;;
35795;SDS011;21916;52.428;13.302;2022-08-19T04:39:22;25.13;;;21.92;;
35795;SDS011;21916;52.428;13.302;2022-08-19T04:42:14;26.15;;;23.55;;
35795;SDS011;21916;52.428;13.302;2022-08-19T04:45:00;25.85;;;23.23;;
35795;SDS011;21916;52.428;13.302;2022-08-19T04:47:29;26.08;;;23.45;;
35795;SDS011;21916;52.428;13.302;2022-08-19T04:49:56;23.27;;;20.85;;
35795;SDS011;21916;52.428;13.302;2022-08-19T04:52:22;24.90;;;22.50;;
35795;SDS011;21916;52.428;13.302;2022-08-19T04:54:48;27.52;;;23.58;;
35795;SDS011;21916;52.428;13.302;2022-08-19T04:57:14;23.20;;;20.73;;
35795;SDS011;21916;52.428;13.302;2022-08-19T04:59:40;21.88;;;19.67;;
35795;SDS011;21916;52.428;13.302;2022-08-19T05:02:08;22.63;;;20.27;;
35795;SDS011;21916;52.428;13.302;2022-08-19T05:04:35;20.38;;;18.40;;
35795;SDS011;21916;52.428;13.302;2022-08-19T05:07:04;20.63;;;18.52;;
35795;SDS011;21916;52.428;13.302;2022-08-19T05:09:31;19.13;;;17.30;;
35795;SDS011;21916;52.428;13.302;2022-08-19T05:11:57;21.40;;;17.63;;
35795;SDS011;21916;52.428;13.302;2022-08-19T05:14:22;20.50;;;17.88;;
35795;SDS011;21916;52.428;13.302;2022-08-19T05:16:48;19.85;;;17.85;;
35795;SDS011;21916;52.428;13.302;2022-08-19T05:19:14;19.55;;;17.52;;
35795;SDS011;21916;52.428;13.302;2022-08-19T05:21:59;18.98;;;17.17;;
35795;SDS011;21916;52.428;13.302;2022-08-19T05:24:44;18.35;;;15.50;;
35795;SDS011;21916;52.428;13.302;2022-08-19T05:27:10;17.60;;;15.80;;
35795;SDS011;21916;52.428;13.302;2022-08-19T05:29:36;17.20;;;15.43;;
35795;SDS011;21916;52.428;13.302;2022-08-19T05:32:03;18.08;;;16.20;;
35795;SDS011;21916;52.428;13.302;2022-08-19T05:34:30;17.23;;;14.77;;
35795;SDS011;21916;52.428;13.302;2022-08-19T05:36:58;18.00;;;16.08;;
35795;SDS011;21916;52.428;13.302;2022-08-19T05:39:27;17.08;;;15.40;;
35795;SDS011;21916;52.428;13.302;2022-08-19T05:41:57;17.00;;;15.40;;
35795;SDS011;21916;52.428;13.302;2022-08-19T05:44:25;17.38;;;15.55;;
35795;SDS011;21916;52.428;13.302;2022-08-19T05:46:56;17.05;;;15.55;;
35795;SDS011;21916;52.428;13.302;2022-08-19T05:49:23;17.00;;;15.30;;
35795;SDS011;21916;52.428;13.302;2022-08-19T05:51:50;17.15;;;15.52;;
35795;SDS011;21916;52.428;13.302;2022-08-19T05:54:17;17.50;;;14.50;;
35795;SDS011;21916;52.428;13.302;2022-08-19T05:56:44;16.55;;;14.85;;
35795;SDS011;21916;52.428;13.302;2022-08-19T05:59:13;16.58;;;14.88;;
35795;SDS011;21916;52.428;13.302;2022-08-19T06:01:42;17.48;;;15.85;;
35795;SDS011;21916;52.428;13.302;2022-08-19T06:04:11;17.58;;;15.68;;
35795;SDS011;21916;52.428;13.302;2022-08-19T06:06:41;15.52;;;14.13;;
35795;SDS011;21916;52.428;13.302;2022-08-19T06:09:07;16.88;;;14.98;;
35795;SDS011;21916;52.428;13.302;2022-08-19T06:11:39;16.48;;;14.75;;
35795;SDS011;21916;52.428;13.302;2022-08-19T06:14:09;17.30;;;15.55;;
35795;SDS011;21916;52.428;13.302;2022-08-19T06:19:12;17.77;;;15.95;;
35795;SDS011;21916;52.428;13.302;2022-08-19T06:21:42;17.35;;;15.55;;
35795;SDS011;21916;52.428;13.302;2022-08-19T06:24:10;18.33;;;16.48;;
35795;SDS011;21916;52.428;13.302;2022-08-19T06:26:39;16.30;;;14.88;;
35795;SDS011;21916;52.428;13.302;2022-08-19T06:29:07;17.88;;;15.95;;
35795;SDS011;21916;52.428;13.302;2022-08-19T06:31:35;18.30;;;16.48;;
35795;SDS011;21916;52.428;13.302;2022-08-19T06:34:03;17.25;;;15.55;;
35795;SDS011;21916;52.428;13.302;2022-08-19T06:36:35;19.33;;;17.35;;
35795;SDS011;21916;52.428;13.302;2022-08-19T06:39:25;19.50;;;16.83;;
35795;SDS011;21916;52.428;13.302;2022-08-19T06:41:54;21.60;;;18.05;;
35795;SDS011;21916;52.428;13.302;2022-08-19T06:44:23;19.00;;;17.13;;
35795;SDS011;21916;52.428;13.302;2022-08-19T06:46:51;20.25;;;16.80;;
35795;SDS011;21916;52.428;13.302;2022-08-19T06:49:18;19.40;;;16.75;;
35795;SDS011;21916;52.428;13.302;2022-08-19T06:51:45;19.90;;;17.92;;
35795;SDS011;21916;52.428;13.302;2022-08-19T06:54:13;18.58;;;16.67;;
35795;SDS011;21916;52.428;13.302;2022-08-19T06:56:40;18.50;;;16.60;;
35795;SDS011;21916;52.428;13.302;2022-08-19T06:59:08;18.02;;;16.17;;
35795;SDS011;21916;52.428;13.302;2022-08-19T07:01:36;18.35;;;16.65;;
35795;SDS011;21916;52.428;13.302;2022-08-19T07:04:07;18.98;;;16.75;;
35795;SDS011;21916;52.428;13.302;2022-08-19T07:06:34;18.27;;;16.52;;
35795;SDS011;21916;52.428;13.302;2022-08-19T07:09:02;18.52;;;15.95;;
35795;SDS011;21916;52.428;13.302;2022-08-19T07:11:32;18.52;;;16.70;;
35795;SDS011;21916;52.428;13.302;2022-08-19T07:13:59;18.42;;;16.60;;
35795;SDS011;21916;52.428;13.302;2022-08-19T07:16:26;18.20;;;16.40;;
35795;SDS011;21916;52.428;13.302;2022-08-19T07:18:53;19.80;;;16.35;;
35795;SDS011;21916;52.428;13.302;2022-08-19T07:21:23;19.27;;;16.52;;
35795;SDS011;21916;52.428;13.302;2022-08-19T07:23:54;17.92;;;15.90;;
35795;SDS011;21916;52.428;13.302;2022-08-19T07:26:23;17.35;;;15.65;;
35795;SDS011;21916;52.428;13.302;2022-08-19T07:28:52;18.83;;;16.67;;
35795;SDS011;21916;52.428;13.302;2022-08-19T07:31:19;18.02;;;16.33;;
35795;SDS011;21916;52.428;13.302;2022-08-19T07:33:49;17.88;;;16.17;;
35795;SDS011;21916;52.428;13.302;2022-08-19T07:36:17;19.33;;;17.27;;
35795;SDS011;21916;52.428;13.302;2022-08-19T07:38:46;18.48;;;16.63;;
35795;SDS011;21916;52.428;13.302;2022-08-19T07:41:15;19.45;;;17.65;;
35795;SDS011;21916;52.428;13.302;2022-08-19T07:43:43;19.05;;;17.20;;
35795;SDS011;21916;52.428;13.302;2022-08-19T07:46:09;19.20;;;17.20;;
35795;SDS011;21916;52.428;13.302;2022-08-19T07:48:37;18.25;;;16.38;;
35795;SDS011;21916;52.428;13.302;2022-08-19T07:51:04;20.60;;;18.58;;
35795;SDS011;21916;52.428;13.302;2022-08-19T07:53:33;20.95;;;17.30;;
35795;SDS011;21916;52.428;13.302;2022-08-19T07:56:00;19.38;;;17.48;;
35795;SDS011;21916;52.428;13.302;2022-08-19T07:58:30;18.55;;;16.83;;
35795;SDS011;21916;52.428;13.302;2022-08-19T08:00:58;19.85;;;18.05;;
35795;SDS011;21916;52.428;13.302;2022-08-19T08:03:24;20.45;;;18.55;;
35795;SDS011;21916;52.428;13.302;2022-08-19T08:06:10;19.77;;;17.88;;
35795;SDS011;21916;52.428;13.302;2022-08-19T08:08:56;21.55;;;19.48;;
35795;SDS011;21916;52.428;13.302;2022-08-19T08:11:41;22.88;;;20.45;;
35795;SDS011;21916;52.428;13.302;2022-08-19T08:14:14;22.00;;;19.92;;
35795;SDS011;21916;52.428;13.302;2022-08-19T08:16:42;21.60;;;19.35;;
35795;SDS011;21916;52.428;13.302;2022-08-19T08:19:09;26.00;;;22.33;;
35795;SDS011;21916;52.428;13.302;2022-08-19T08:21:35;23.23;;;20.55;;
35795;SDS011;21916;52.428;13.302;2022-08-19T08:24:01;24.92;;;22.52;;
35795;SDS011;21916;52.428;13.302;2022-08-19T08:26:27;23.92;;;21.42;;
35795;SDS011;21916;52.428;13.302;2022-08-19T08:28:53;24.25;;;21.88;;
35795;SDS011;21916;52.428;13.302;2022-08-19T08:31:19;24.70;;;22.40;;
35795;SDS011;21916;52.428;13.302;2022-08-19T08:33:45;23.88;;;20.92;;
35795;SDS011;21916;52.428;13.302;2022-08-19T08:36:12;23.33;;;21.13;;
35795;SDS011;21916;52.428;13.302;2022-08-19T08:38:39;24.13;;;21.77;;
35795;SDS011;21916;52.428;13.302;2022-08-19T08:41:30;25.45;;;22.13;;
35795;SDS011;21916;52.428;13.302;2022-08-19T08:43:58;24.60;;;21.65;;
35795;SDS011;21916;52.428;13.302;2022-08-19T08:46:26;24.05;;;21.75;;
35795;SDS011;21916;52.428;13.302;2022-08-19T08:49:06;24.02;;;21.55;;
35795;SDS011;21916;52.428;13.302;2022-08-19T08:54:30;25.77;;;23.20;;
35795;SDS011;21916;52.428;13.302;2022-08-19T08:56:59;25.17;;;22.60;;
35795;SDS011;21916;52.428;13.302;2022-08-19T08:59:31;25.70;;;23.08;;
35795;SDS011;21916;52.428;13.302;2022-08-19T09:02:02;25.52;;;22.90;;
35795;SDS011;21916;52.428;13.302;2022-08-19T09:04:28;24.80;;;22.50;;
35795;SDS011;21916;52.428;13.302;2022-08-19T09:09:43;25.25;;;22.75;;
35795;SDS011;21916;52.428;13.302;2022-08-19T09:12:16;24.95;;;22.60;;
35795;SDS011;21916;52.428;13.302;2022-08-19T09:14:58;26.02;;;23.55;;
35795;SDS011;21916;52.428;13.302;2022-08-19T09:17:30;26.02;;;23.27;;
35795;SDS011;21916;52.428;13.302;2022-08-19T09:23:00;24.08;;;21.77;;
35795;SDS011;21916;52.428;13.302;2022-08-19T09:25:26;25.73;;;23.20;;
35795;SDS011;21916;52.428;13.302;2022-08-19T09:27:52;25.02;;;22.80;;
35795;SDS011;21916;52.428;13.302;2022-08-19T09:30:26;24.40;;;22.15;;
35795;SDS011;21916;52.428;13.302;2022-08-19T09:32:54;24.55;;;22.25;;
35795;SDS011;21916;52.428;13.302;2022-08-19T09:35:21;23.83;;;21.33;;
35795;SDS011;21916;52.428;13.302;2022-08-19T09:37:48;21.67;;;19.52;;
35795;SDS011;21916;52.428;13.302;2022-08-19T09:40:15;22.85;;;20.58;;
35795;SDS011;21916;52.428;13.302;2022-08-19T09:42:43;22.58;;;20.38;;
35795;SDS011;21916;52.428;13.302;2022-08-19T09:45:11;21.90;;;19.83;;
35795;SDS011;21916;52.428;13.302;2022-08-19T09:47:38;19.48;;;17.58;;
35795;SDS011;21916;52.428;13.302;2022-08-19T09:50:05;20.25;;;18.35;;
35795;SDS011;21916;52.428;13.302;2022-08-19T09:52:33;20.20;;;18.27;;
35795;SDS011;21916;52.428;13.302;2022-08-19T09:55:09;20.92;;;18.80;;
35795;SDS011;21916;52.428;13.302;2022-08-19T09:57:35;20.02;;;18.02;;
35795;SDS011;21916;52.428;13.302;2022-08-19T10:00:05;20.27;;;18.27;;
35795;SDS011;21916;52.428;13.302;2022-08-19T10:02:33;20.50;;;18.60;;
35795;SDS011;21916;52.428;13.302;2022-08-19T10:04:59;20.65;;;18.45;;
35795;SDS011;21916;52.428;13.302;2022-08-19T10:07:44;20.55;;;18.50;;
35795;SDS011;21916;52.428;13.302;2022-08-19T10:10:10;19.95;;;17.80;;
35795;SDS011;21916;52.428;13.302;2022-08-19T10:12:36;20.52;;;18.58;;
35795;SDS011;21916;52.428;13.302;2022-08-19T10:15:05;21.42;;;19.42;;
35795;SDS011;21916;52.428;13.302;2022-08-19T10:17:32;20.50;;;18.50;;
35795;SDS011;21916;52.428;13.302;2022-08-19T10:20:00;19.95;;;18.13;;
35795;SDS011;21916;52.428;13.302;2022-08-19T10:22:28;18.45;;;16.67;;
35795;SDS011;21916;52.428;13.302;2022-08-19T10:24:54;20.63;;;18.08;;
35795;SDS011;21916;52.428;13.302;2022-08-19T10:27:20;18.48;;;16.52;;
35795;SDS011;21916;52.428;13.302;2022-08-19T10:29:46;17.70;;;16.08;;
35795;SDS011;21916;52.428;13.302;2022-08-19T10:32:13;18.10;;;16.30;;
35795;SDS011;21916;52.428;13.302;2022-08-19T10:34:39;19.30;;;15.88;;
35795;SDS011;21916;52.428;13.302;2022-08-19T10:37:05;18.55;;;16.85;;
35795;SDS011;21916;52.428;13.302;2022-08-19T10:39:32;18.25;;;16.52;;
35795;SDS011;21916;52.428;13.302;2022-08-19T10:42:04;16.90;;;15.20;;
35795;SDS011;21916;52.428;13.302;2022-08-19T10:44:31;20.08;;;18.05;;
35795;SDS011;21916;52.428;13.302;2022-08-19T10:46:57;19.08;;;17.15;;
35795;SDS011;21916;52.428;13.302;2022-08-19T10:49:24;17.08;;;15.48;;
35795;SDS011;21916;52.428;13.302;2022-08-19T10:51:49;16.52;;;15.02;;
35795;SDS011;21916;52.428;13.302;2022-08-19T10:54:34;17.02;;;15.32;;
35795;SDS011;21916;52.428;13.302;2022-08-19T10:57:18;18.00;;;16.25;;
35795;SDS011;21916;52.428;13.302;2022-08-19T10:59:44;18.52;;;16.60;;
35795;SDS011;21916;52.428;13.302;2022-08-19T11:02:10;17.67;;;16.05;;
35795;SDS011;21916;52.428;13.302;2022-08-19T11:04:38;18.33;;;16.52;;
35795;SDS011;21916;52.428;13.302;2022-08-19T11:07:05;18.75;;;16.85;;
35795;SDS011;21916;52.428;13.302;2022-08-19T11:09:35;19.02;;;17.05;;
35795;SDS011;21916;52.428;13.302;2022-08-19T11:12:04;17.83;;;16.02;;
35795;SDS011;21916;52.428;13.302;2022-08-19T11:14:30;18.73;;;16.80;;
35795;SDS011;21916;52.428;13.302;2022-08-19T11:16:59;18.17;;;16.45;;
35795;SDS011;21916;52.428;13.302;2022-08-19T11:19:25;19.15;;;17.23;;
35795;SDS011;21916;52.428;13.302;2022-08-19T11:21:51;19.15;;;17.30;;
35795;SDS011;21916;52.428;13.302;2022-08-19T11:24:21;17.92;;;16.25;;
35795;SDS011;21916;52.428;13.302;2022-08-19T11:26:49;18.25;;;16.65;;
35795;SDS011;21916;52.428;13.302;2022-08-19T11:29:17;16.90;;;15.38;;
35795;SDS011;21916;52.428;13.302;2022-08-19T11:31:45;17.95;;;16.25;;
35795;SDS011;21916;52.428;13.302;2022-08-19T11:34:20;18.45;;;16.65;;
35795;SDS011;21916;52.428;13.302;2022-08-19T11:36:48;18.05;;;16.27;;
35795;SDS011;21916;52.428;13.302;2022-08-19T11:39:16;18.23;;;16.40;;
35795;SDS011;21916;52.428;13.302;2022-08-19T11:41:45;17.55;;;15.75;;
35795;SDS011;21916;52.428;13.302;2022-08-19T11:44:11;16.83;;;15.23;;
35795;SDS011;21916;52.428;13.302;2022-08-19T11:46:41;16.60;;;14.93;;
35795;SDS011;21916;52.428;13.302;2022-08-19T11:49:11;16.92;;;15.27;;
35795;SDS011;21916;52.428;13.302;2022-08-19T11:51:43;15.60;;;14.18;;
35795;SDS011;21916;52.428;13.302;2022-08-19T11:54:10;14.70;;;13.20;;
35795;SDS011;21916;52.428;13.302;2022-08-19T11:56:38;15.15;;;13.68;;
35795;SDS011;21916;52.428;13.302;2022-08-19T11:59:05;14.18;;;12.70;;
35795;SDS011;21916;52.428;13.302;2022-08-19T12:01:33;14.80;;;13.48;;
35795;SDS011;21916;52.428;13.302;2022-08-19T12:03:59;13.65;;;12.35;;
35795;SDS011;21916;52.428;13.302;2022-08-19T12:06:27;14.07;;;12.77;;
35795;SDS011;21916;52.428;13.302;2022-08-19T12:08:56;13.05;;;11.80;;
35795;SDS011;21916;52.428;13.302;2022-08-19T12:11:22;12.88;;;11.57;;
35795;SDS011;21916;52.428;13.302;2022-08-19T12:13:49;12.35;;;11.18;;
35795;SDS011;21916;52.428;13.302;2022-08-19T12:16:18;12.90;;;11.70;;
35795;SDS011;21916;52.428;13.302;2022-08-19T12:18:47;13.20;;;12.00;;
35795;SDS011;21916;52.428;13.302;2022-08-19T12:21:17;12.18;;;11.07;;
35795;SDS011;21916;52.428;13.302;2022-08-19T12:23:46;12.38;;;11.13;;
35795;SDS011;21916;52.428;13.302;2022-08-19T12:26:17;12.75;;;11.40;;
35795;SDS011;21916;52.428;13.302;2022-08-19T12:28:46;12.15;;;11.02;;
35795;SDS011;21916;52.428;13.302;2022-08-19T12:31:13;14.00;;;12.60;;
35795;SDS011;21916;52.428;13.302;2022-08-19T12:33:39;12.43;;;11.07;;
35795;SDS011;21916;52.428;13.302;2022-08-19T12:36:07;12.55;;;11.30;;
35795;SDS011;21916;52.428;13.302;2022-08-19T12:38:35;11.55;;;10.45;;
35795;SDS011;21916;52.428;13.302;2022-08-19T12:41:01;13.88;;;12.50;;
35795;SDS011;21916;52.428;13.302;2022-08-19T12:43:35;12.23;;;10.98;;
35795;SDS011;21916;52.428;13.302;2022-08-19T12:46:03;12.63;;;11.43;;
35795;SDS011;21916;52.428;13.302;2022-08-19T12:48:31;12.55;;;11.38;;
35795;SDS011;21916;52.428;13.302;2022-08-19T12:50:58;12.55;;;11.35;;
35795;SDS011;21916;52.428;13.302;2022-08-19T12:53:24;12.93;;;11.73;;
35795;SDS011;21916;52.428;13.302;2022-08-19T12:55:56;12.10;;;10.98;;
35795;SDS011;21916;52.428;13.302;2022-08-19T12:58:23;11.27;;;10.20;;
35795;SDS011;21916;52.428;13.302;2022-08-19T13:00:49;10.25;;;9.18;;
35795;SDS011;21916;52.428;13.302;2022-08-19T13:03:16;11.05;;;10.07;;
35795;SDS011;21916;52.428;13.302;2022-08-19T13:05:42;11.38;;;10.38;;
35795;SDS011;21916;52.428;13.302;2022-08-19T13:08:11;10.93;;;9.95;;
35795;SDS011;21916;52.428;13.302;2022-08-19T13:10:37;10.95;;;9.88;;
35795;SDS011;21916;52.428;13.302;2022-08-19T13:13:04;13.10;;;9.93;;
35795;SDS011;21916;52.428;13.302;2022-08-19T13:15:36;9.43;;;8.52;;
35795;SDS011;21916;52.428;13.302;2022-08-19T13:18:05;11.40;;;10.02;;
35795;SDS011;21916;52.428;13.302;2022-08-19T13:20:35;12.98;;;9.80;;
35795;SDS011;21916;52.428;13.302;2022-08-19T13:23:03;10.57;;;9.50;;
35795;SDS011;21916;52.428;13.302;2022-08-19T13:25:29;11.13;;;9.98;;
35795;SDS011;21916;52.428;13.302;2022-08-19T13:27:56;11.18;;;10.13;;
35795;SDS011;21916;52.428;13.302;2022-08-19T13:30:22;11.27;;;9.80;;
35795;SDS011;21916;52.428;13.302;2022-08-19T13:33:07;12.43;;;10.60;;
35795;SDS011;21916;52.428;13.302;2022-08-19T13:35:41;12.18;;;10.98;;
35795;SDS011;21916;52.428;13.302;2022-08-19T13:38:17;12.43;;;11.25;;
35795;SDS011;21916;52.428;13.302;2022-08-19T13:40:45;12.07;;;10.88;;
35795;SDS011;21916;52.428;13.302;2022-08-19T13:43:12;12.70;;;11.45;;
35795;SDS011;21916;52.428;13.302;2022-08-19T13:45:39;11.77;;;10.75;;
35795;SDS011;21916;52.428;13.302;2022-08-19T13:48:07;12.70;;;11.48;;
35795;SDS011;21916;52.428;13.302;2022-08-19T13:50:40;11.65;;;10.65;;
35795;SDS011;21916;52.428;13.302;2022-08-19T13:53:11;12.55;;;11.27;;
35795;SDS011;21916;52.428;13.302;2022-08-19T13:55:38;11.73;;;10.50;;
35795;SDS011;21916;52.428;13.302;2022-08-19T13:58:09;21.23;;;18.20;;
35795;SDS011;21916;52.428;13.302;2022-08-19T14:00:38;21.27;;;19.13;;
35795;SDS011;21916;52.428;13.302;2022-08-19T14:03:07;20.65;;;18.55;;
35795;SDS011;21916;52.428;13.302;2022-08-19T14:05:33;20.58;;;18.58;;
35795;SDS011;21916;52.428;13.302;2022-08-19T14:08:02;19.80;;;17.90;;
35795;SDS011;21916;52.428;13.302;2022-08-19T14:10:29;17.15;;;15.55;;
35795;SDS011;21916;52.428;13.302;2022-08-19T14:12:57;16.15;;;14.68;;
35795;SDS011;21916;52.428;13.302;2022-08-19T14:15:26;13.60;;;12.25;;
35795;SDS011;21916;52.428;13.302;2022-08-19T14:17:52;13.63;;;12.32;;
35795;SDS011;21916;52.428;13.302;2022-08-19T14:20:19;14.27;;;12.68;;
35795;SDS011;21916;52.428;13.302;2022-08-19T14:22:46;13.23;;;11.95;;
35795;SDS011;21916;52.428;13.302;2022-08-19T14:25:15;14.07;;;11.88;;
35795;SDS011;21916;52.428;13.302;2022-08-19T14:27:43;13.18;;;11.80;;
35795;SDS011;21916;52.428;13.302;2022-08-19T14:30:11;11.77;;;10.77;;